^^
Paulen-Weather Station Historical Data
Daily Summary for January 17, 2022 Units:  Metric    English   Both
Daily Weekly Monthly Yearly Custom
  High: Low: Average:
Temperature: 9 °C 2 °C 4.3 °C
Dew Point: 3 °C -5 °C -1.7 °C
Humidity: 80% 55% 65%
Wind Speed: 56km/h 2km/h 27.7km/h
Wind Gust: 46km/h - -
Wind- - WNW
Pressure: 1029.36 hPa 1002 hPa -
Precipitation: 0.2 mm    
Historical Graphs
 
 
Tabular Data for January 17, 2022
Time Temperature Dew Point Pressure Wind Wind Speed Wind Gust Humidity Rainfall Rate (Hourly) solar
00:04 9 °C 3 °C 1002 hPa NNW 55 km/h 43 km/h 69% 0 mm 0 W/m2
00:09 8 °C 3 °C 1002.07 hPa NNW 52 km/h 41 km/h 69% 0 mm 0 W/m2
00:14 8 °C 3 °C 1002.37 hPa NNW 52 km/h 37 km/h 70% 0 mm 0 W/m2
00:19 8 °C 3 °C 1002.74 hPa NNW 46 km/h 40 km/h 70% 0 mm 0 W/m2
00:24 8 °C 3 °C 1003.08 hPa NNW 48 km/h 41 km/h 70% 0 mm 0 W/m2
00:29 8 °C 3 °C 1003.22 hPa NNW 49 km/h 37 km/h 70% 0 mm 0 W/m2
00:34 8 °C 3 °C 1003.52 hPa NNW 53 km/h 41 km/h 71% 0 mm 0 W/m2
00:39 8 °C 3 °C 1003.59 hPa NNW 52 km/h 42 km/h 71% 0 mm 0 W/m2
00:44 8 °C 3 °C 1003.69 hPa NNW 45 km/h 37 km/h 71% 0 mm 0 W/m2
00:49 7 °C 3 °C 1003.73 hPa NNW 40 km/h 32 km/h 72% 0 mm 0 W/m2
00:54 7 °C 2 °C 1003.73 hPa NNW 38 km/h 31 km/h 71% 0 mm 0 W/m2
00:59 7 °C 2 °C 1003.73 hPa NNW 47 km/h 42 km/h 71% 0 mm 0 W/m2
01:04 7 °C 2 °C 1003.93 hPa NNW 42 km/h 43 km/h 71% 0 mm 0 W/m2
01:09 7 °C 2 °C 1003.93 hPa NNW 44 km/h 35 km/h 70% 0 mm 0 W/m2
01:14 7 °C 2 °C 1004 hPa NNW 41 km/h 38 km/h 70% 0 mm 0 W/m2
01:19 7 °C 2 °C 1004.17 hPa NNW 53 km/h 41 km/h 70% 0 mm 0 W/m2
01:24 7 °C 2 °C 1004.23 hPa NNW 41 km/h 39 km/h 69% 0 mm 0 W/m2
01:29 7 °C 2 °C 1004.44 hPa NNW 41 km/h 37 km/h 69% 0 mm 0 W/m2
01:34 7 °C 2 °C 1004.64 hPa NNW 44 km/h 39 km/h 69% 0 mm 0 W/m2
01:39 7 °C 1 °C 1004.98 hPa NNW 47 km/h 37 km/h 68% 0 mm 0 W/m2
01:44 7 °C 1 °C 1005.11 hPa NNW 43 km/h 31 km/h 68% 0.2 mm 0 W/m2
01:49 7 °C 1 °C 1005.11 hPa NNW 37 km/h 30 km/h 67% 0.2 mm 0 W/m2
01:54 6 °C 1 °C 1005.42 hPa NNW 36 km/h 34 km/h 67% 0.2 mm 0 W/m2
01:59 6 °C 1 °C 1005.49 hPa N 46 km/h 38 km/h 67% 0.2 mm 0 W/m2
02:04 6 °C 1 °C 1005.66 hPa NNW 42 km/h 37 km/h 67% 0.2 mm 0 W/m2
02:09 6 °C 1 °C 1005.62 hPa N 40 km/h 36 km/h 67% 0.2 mm 0 W/m2
02:14 6 °C 1 °C 1005.52 hPa NNW 36 km/h 29 km/h 67% 0.2 mm 0 W/m2
02:19 6 °C 1 °C 1005.62 hPa NNW 43 km/h 39 km/h 67% 0.2 mm 0 W/m2
02:24 6 °C 0 °C 1005.86 hPa NNW 45 km/h 38 km/h 66% 0.2 mm 0 W/m2
02:29 6 °C 1 °C 1005.76 hPa NNW 35 km/h 32 km/h 67% 0.2 mm 0 W/m2
02:34 6 °C 0 °C 1005.86 hPa NNW 39 km/h 34 km/h 67% 0.2 mm 0 W/m2
02:39 6 °C 0 °C 1005.89 hPa NNW 39 km/h 33 km/h 67% 0.2 mm 0 W/m2
02:44 6 °C 0 °C 1005.99 hPa NNW 44 km/h 37 km/h 67% 0.2 mm 0 W/m2
02:49 6 °C 0 °C 1006.27 hPa NNW 36 km/h 32 km/h 67% 0 mm 0 W/m2
02:54 6 °C 1 °C 1006.54 hPa NNW 39 km/h 34 km/h 68% 0 mm 0 W/m2
02:59 6 °C 1 °C 1006.57 hPa N 35 km/h 33 km/h 68% 0 mm 0 W/m2
03:04 6 °C 1 °C 1006.77 hPa N 38 km/h 33 km/h 68% 0 mm 0 W/m2
03:09 6 °C 0 °C 1006.87 hPa N 41 km/h 36 km/h 67% 0 mm 0 W/m2
03:14 6 °C 0 °C 1007.01 hPa N 44 km/h 43 km/h 66% 0 mm 0 W/m2
03:19 6 °C 0 °C 1007.25 hPa N 42 km/h 37 km/h 65% 0 mm 0 W/m2
03:24 6 °C 0 °C 1007.21 hPa N 44 km/h 43 km/h 64% 0 mm 0 W/m2
03:29 6 °C 0 °C 1007.35 hPa N 50 km/h 38 km/h 62% 0 mm 0 W/m2
03:34 6 °C 0 °C 1007.59 hPa N 56 km/h 44 km/h 61% 0 mm 0 W/m2
03:39 6 °C 0 °C 1007.79 hPa N 37 km/h 36 km/h 62% 0 mm 0 W/m2
03:44 6 °C 0 °C 1007.79 hPa N 49 km/h 43 km/h 63% 0 mm 0 W/m2
03:49 6 °C 0 °C 1008.03 hPa N 45 km/h 40 km/h 61% 0 mm 0 W/m2
03:54 6 °C -1 °C 1008.16 hPa N 45 km/h 37 km/h 61% 0 mm 0 W/m2
03:59 6 °C -1 °C 1008.06 hPa N 50 km/h 46 km/h 60% 0 mm 0 W/m2
04:04 6 °C -1 °C 1008.23 hPa N 56 km/h 45 km/h 61% 0 mm 0 W/m2
04:09 6 °C -1 °C 1008.2 hPa NNW 32 km/h 32 km/h 61% 0 mm 0 W/m2
04:14 6 °C -1 °C 1008.09 hPa NNW 34 km/h 36 km/h 62% 0 mm 0 W/m2
04:19 6 °C -1 °C 1008.16 hPa NNW 43 km/h 33 km/h 62% 0 mm 0 W/m2
04:24 6 °C -1 °C 1008.43 hPa NNW 35 km/h 33 km/h 62% 0 mm 0 W/m2
04:29 6 °C 0 °C 1008.81 hPa N 37 km/h 32 km/h 63% 0 mm 0 W/m2
04:34 6 °C 0 °C 1009.14 hPa N 31 km/h 27 km/h 64% 0 mm 0 W/m2
04:39 6 °C -1 °C 1009.38 hPa N 42 km/h 41 km/h 61% 0 mm 0 W/m2
04:44 6 °C -1 °C 1009.75 hPa N 42 km/h 43 km/h 59% 0 mm 0 W/m2
04:49 6 °C -1 °C 1009.99 hPa NNE 32 km/h 32 km/h 62% 0 mm 0 W/m2
04:54 6 °C -1 °C 1010.26 hPa NNE 34 km/h 27 km/h 60% 0 mm 0 W/m2
04:59 6 °C -2 °C 1010.6 hPa NNE 38 km/h 34 km/h 59% 0 mm 0 W/m2
05:04 6 °C -2 °C 1010.94 hPa NNE 33 km/h 32 km/h 58% 0 mm 0 W/m2
05:09 5 °C -2 °C 1011.11 hPa NNE 31 km/h 28 km/h 59% 0 mm 0 W/m2
05:14 5 °C -1 °C 1011.38 hPa NNE 29 km/h 24 km/h 62% 0 mm 0 W/m2
05:19 5 °C -1 °C 1011.45 hPa NNE 29 km/h 36 km/h 62% 0 mm 0 W/m2
05:24 5 °C -2 °C 1011.65 hPa NNE 43 km/h 38 km/h 59% 0 mm 0 W/m2
05:29 5 °C -2 °C 1011.75 hPa N 44 km/h 46 km/h 61% 0 mm 0 W/m2
05:34 5 °C -1 °C 1011.99 hPa N 46 km/h 43 km/h 63% 0 mm 0 W/m2
05:39 5 °C -1 °C 1012.23 hPa N 36 km/h 31 km/h 63% 0 mm 0 W/m2
05:44 5 °C -1 °C 1012.5 hPa NNE 25 km/h 24 km/h 64% 0 mm 0 W/m2
05:49 5 °C -2 °C 1012.6 hPa NNE 32 km/h 38 km/h 63% 0 mm 0 W/m2
05:54 5 °C -2 °C 1012.84 hPa NNE 33 km/h 37 km/h 62% 0 mm 0 W/m2
05:59 5 °C -2 °C 1012.94 hPa N 31 km/h 31 km/h 61% 0 mm 0 W/m2
06:04 4 °C -2 °C 1013 hPa N 42 km/h 38 km/h 61% 0 mm 0 W/m2
06:09 4 °C -2 °C 1013.34 hPa N 38 km/h 36 km/h 61% 0 mm 0 W/m2
06:14 4 °C -2 °C 1013.58 hPa N 38 km/h 38 km/h 61% 0 mm 0 W/m2
06:19 4 °C -2 °C 1013.85 hPa N 35 km/h 34 km/h 62% 0 mm 0 W/m2
06:24 4 °C -3 °C 1014.12 hPa N 38 km/h 34 km/h 60% 0 mm 0 W/m2
06:29 4 °C -3 °C 1014.16 hPa N 38 km/h 33 km/h 61% 0 mm 0 W/m2
06:34 4 °C -2 °C 1014.26 hPa N 29 km/h 24 km/h 61% 0 mm 0 W/m2
06:39 4 °C -3 °C 1014.39 hPa N 29 km/h 26 km/h 61% 0 mm 0 W/m2
06:44 4 °C -3 °C 1014.8 hPa NNE 28 km/h 24 km/h 60% 0 mm 0 W/m2
06:49 4 °C -3 °C 1015.27 hPa NNE 19 km/h 18 km/h 61% 0 mm 0 W/m2
06:54 4 °C -3 °C 1015.58 hPa NNE 22 km/h 19 km/h 60% 0 mm 0 W/m2
06:59 4 °C -2 °C 1015.78 hPa NE 22 km/h 22 km/h 62% 0 mm 0 W/m2
07:04 4 °C -3 °C 1016.02 hPa NE 27 km/h 25 km/h 59% 0 mm 0 W/m2
07:09 4 °C -3 °C 1016.09 hPa NNE 34 km/h 31 km/h 59% 0 mm 0 W/m2
07:14 4 °C -3 °C 1016.09 hPa NNE 31 km/h 24 km/h 62% 0 mm 0 W/m2
07:19 4 °C -3 °C 1016.19 hPa NNE 26 km/h 22 km/h 61% 0 mm 0 W/m2
07:24 4 °C -3 °C 1016.53 hPa NNE 30 km/h 24 km/h 60% 0 mm 0 W/m2
07:29 4 °C -3 °C 1016.8 hPa NNE 28 km/h 25 km/h 59% 0 mm 0 W/m2
07:34 4 °C -3 °C 1017.07 hPa NNE 23 km/h 24 km/h 59% 0 mm 0 W/m2
07:39 4 °C -3 °C 1017.54 hPa NNE 18 km/h 17 km/h 60% 0 mm 0 W/m2
07:44 4 °C -3 °C 1017.64 hPa NNE 22 km/h 19 km/h 60% 0 mm 0 W/m2
07:49 4 °C -3 °C 1017.47 hPa NNE 19 km/h 15 km/h 60% 0 mm 0 W/m2
07:54 4 °C -3 °C 1017.31 hPa NNE 17 km/h 14 km/h 61% 0 mm 0 W/m2
07:59 3 °C -3 °C 1017.61 hPa NNE 12 km/h 10 km/h 60% 0 mm 0 W/m2
08:04 3 °C -3 °C 1017.85 hPa NNE 11 km/h 10 km/h 60% 0 mm 0 W/m2
08:09 3 °C -4 °C 1018.02 hPa NNE 10 km/h 8 km/h 60% 0 mm 0 W/m2
08:14 3 °C -4 °C 1018.12 hPa NNW 7 km/h 8 km/h 59% 0 mm 0 W/m2
08:19 3 °C -4 °C 1018.15 hPa NNW 10 km/h 10 km/h 58% 0 mm 0 W/m2
08:24 3 °C -4 °C 1018.32 hPa NNW 10 km/h 8 km/h 58% 0 mm 0 W/m2
08:29 3 °C -4 °C 1018.32 hPa NNW 7 km/h 7 km/h 58% 0 mm 0 W/m2
08:34 3 °C -4 °C 1018.49 hPa NW 7 km/h 4 km/h 59% 0 mm 0 W/m2
08:39 2 °C -4 °C 1018.8 hPa NNW 3 km/h 2 km/h 60% 0 mm 0 W/m2
08:44 2 °C -5 °C 1019.03 hPa NNW 12 km/h 12 km/h 60% 0 mm 5 W/m2
08:49 3 °C -5 °C 1019.2 hPa NNW 8 km/h 7 km/h 59% 0 mm 5 W/m2
08:54 3 °C -4 °C 1019.2 hPa NW 8 km/h 10 km/h 59% 0 mm 5 W/m2
08:59 3 °C -5 °C 1019.1 hPa NW 9 km/h 8 km/h 58% 0 mm 5 W/m2
09:04 3 °C -4 °C 1018.96 hPa NNW 11 km/h 10 km/h 59% 0 mm 11 W/m2
09:09 3 °C -4 °C 1019.13 hPa NNW 9 km/h 9 km/h 60% 0 mm 18 W/m2
09:14 3 °C -4 °C 1019.37 hPa NNW 8 km/h 8 km/h 60% 0 mm 23 W/m2
09:19 3 °C -4 °C 1019.4 hPa NNW 13 km/h 10 km/h 59% 0 mm 26 W/m2
09:24 3 °C -4 °C 1019.37 hPa NNW 18 km/h 14 km/h 58% 0 mm 30 W/m2
09:29 3 °C -4 °C 1019.61 hPa NW 12 km/h 9 km/h 58% 0 mm 35 W/m2
09:34 3 °C -4 °C 1019.91 hPa NNW 13 km/h 10 km/h 59% 0 mm 39 W/m2
09:39 3 °C -4 °C 1019.95 hPa NW 14 km/h 10 km/h 60% 0 mm 47 W/m2
09:44 3 °C -4 °C 1020.05 hPa NW 13 km/h 10 km/h 61% 0 mm 54 W/m2
09:49 3 °C -4 °C 1020.15 hPa NW 12 km/h 10 km/h 61% 0 mm 60 W/m2
09:54 3 °C -4 °C 1020.22 hPa NNW 13 km/h 11 km/h 61% 0 mm 63 W/m2
09:59 3 °C -4 °C 1020.18 hPa NW 18 km/h 13 km/h 62% 0 mm 63 W/m2
10:04 3 °C -4 °C 1020.39 hPa NW 18 km/h 15 km/h 61% 0 mm 69 W/m2
10:09 3 °C -4 °C 1020.49 hPa NW 19 km/h 14 km/h 61% 0 mm 77 W/m2
10:14 3 °C -4 °C 1020.49 hPa NW 17 km/h 11 km/h 61% 0 mm 83 W/m2
10:19 3 °C -4 °C 1020.49 hPa NW 14 km/h 9 km/h 62% 0 mm 86 W/m2
10:24 3 °C -4 °C 1020.42 hPa NW 19 km/h 15 km/h 62% 0 mm 97 W/m2
10:29 3 °C -4 °C 1020.32 hPa NW 21 km/h 16 km/h 61% 0 mm 107 W/m2
10:34 3 °C -4 °C 1020.45 hPa NNW 24 km/h 18 km/h 60% 0 mm 121 W/m2
10:39 3 °C -4 °C 1020.62 hPa NNW 23 km/h 19 km/h 59% 0 mm 127 W/m2
10:44 4 °C -4 °C 1020.62 hPa NW 20 km/h 20 km/h 58% 0 mm 127 W/m2
10:49 4 °C -4 °C 1020.76 hPa NNW 23 km/h 18 km/h 58% 0 mm 130 W/m2
10:54 4 °C -4 °C 1020.86 hPa NW 23 km/h 18 km/h 57% 0 mm 128 W/m2
10:59 4 °C -4 °C 1020.83 hPa NW 20 km/h 16 km/h 58% 0 mm 109 W/m2
11:04 4 °C -4 °C 1021.1 hPa NW 17 km/h 11 km/h 58% 0 mm 109 W/m2
11:09 4 °C -4 °C 1021.4 hPa NW 25 km/h 20 km/h 57% 0 mm 134 W/m2
11:14 4 °C -4 °C 1021.5 hPa NNW 21 km/h 18 km/h 58% 0 mm 135 W/m2
11:19 4 °C -4 °C 1021.61 hPa NNW 22 km/h 19 km/h 58% 0 mm 137 W/m2
11:24 4 °C -4 °C 1021.67 hPa NNW 26 km/h 19 km/h 58% 0 mm 141 W/m2
11:29 4 °C -4 °C 1021.71 hPa NNW 27 km/h 21 km/h 57% 0 mm 146 W/m2
11:34 4 °C -4 °C 1021.64 hPa NNW 33 km/h 23 km/h 56% 0 mm 148 W/m2
11:39 4 °C -4 °C 1021.5 hPa NNW 34 km/h 27 km/h 57% 0 mm 151 W/m2
11:44 4 °C -4 °C 1021.33 hPa NNW 38 km/h 32 km/h 57% 0 mm 153 W/m2
11:49 4 °C -4 °C 1021.4 hPa NNW 37 km/h 31 km/h 57% 0 mm 155 W/m2
11:54 4 °C -3 °C 1021.57 hPa NNW 36 km/h 30 km/h 58% 0 mm 156 W/m2
11:59 4 °C -3 °C 1021.57 hPa NNW 38 km/h 30 km/h 58% 0 mm 162 W/m2
12:04 4 °C -4 °C 1021.64 hPa NNW 34 km/h 29 km/h 57% 0 mm 162 W/m2
12:09 4 °C -4 °C 1021.78 hPa NNW 34 km/h 28 km/h 57% 0 mm 160 W/m2
12:14 4 °C -4 °C 1021.81 hPa NNW 34 km/h 25 km/h 57% 0 mm 160 W/m2
12:19 4 °C -3 °C 1021.78 hPa NNW 33 km/h 28 km/h 57% 0 mm 162 W/m2
12:24 4 °C -4 °C 1021.81 hPa NNW 35 km/h 27 km/h 57% 0 mm 162 W/m2
12:29 4 °C -4 °C 1021.98 hPa NNW 31 km/h 26 km/h 57% 0 mm 162 W/m2
12:34 4 °C -4 °C 1022.22 hPa NNW 37 km/h 26 km/h 57% 0 mm 162 W/m2
12:39 4 °C -3 °C 1022.15 hPa NNW 36 km/h 31 km/h 57% 0 mm 162 W/m2
12:44 4 °C -4 °C 1022.08 hPa NNW 35 km/h 32 km/h 57% 0 mm 160 W/m2
12:49 4 °C -4 °C 1022.08 hPa NNW 43 km/h 33 km/h 56% 0 mm 160 W/m2
12:54 4 °C -4 °C 1022.22 hPa NNW 34 km/h 35 km/h 56% 0 mm 160 W/m2
12:59 4 °C -4 °C 1022.28 hPa NNW 41 km/h 34 km/h 56% 0 mm 158 W/m2
13:04 4 °C -3 °C 1022.62 hPa N 37 km/h 31 km/h 57% 0 mm 156 W/m2
13:09 4 °C -3 °C 1022.89 hPa N 31 km/h 26 km/h 57% 0 mm 155 W/m2
13:14 4 °C -3 °C 1023.03 hPa N 33 km/h 31 km/h 57% 0 mm 151 W/m2
13:19 4 °C -3 °C 1023.27 hPa N 27 km/h 25 km/h 57% 0 mm 148 W/m2
13:24 4 °C -3 °C 1023.3 hPa N 36 km/h 32 km/h 56% 0 mm 146 W/m2
13:29 4 °C -3 °C 1023.33 hPa N 28 km/h 27 km/h 57% 0 mm 146 W/m2
13:34 4 °C -4 °C 1023.37 hPa NNW 32 km/h 28 km/h 55% 0 mm 144 W/m2
13:39 4 °C -3 °C 1023.47 hPa N 31 km/h 28 km/h 57% 0 mm 142 W/m2
13:44 4 °C -3 °C 1023.64 hPa NNW 31 km/h 31 km/h 56% 0 mm 139 W/m2
13:49 4 °C -3 °C 1023.57 hPa N 32 km/h 30 km/h 57% 0 mm 137 W/m2
13:54 4 °C -3 °C 1023.4 hPa N 41 km/h 37 km/h 57% 0 mm 134 W/m2
13:59 4 °C -3 °C 1023.4 hPa NNW 38 km/h 33 km/h 56% 0 mm 130 W/m2
14:04 4 °C -3 °C 1023.64 hPa N 40 km/h 34 km/h 58% 0 mm 130 W/m2
14:09 4 °C -3 °C 1023.67 hPa N 38 km/h 31 km/h 58% 0 mm 127 W/m2
14:14 5 °C -3 °C 1023.71 hPa N 32 km/h 27 km/h 59% 0 mm 128 W/m2
14:19 5 °C -3 °C 1023.77 hPa N 35 km/h 31 km/h 59% 0 mm 135 W/m2
14:24 4 °C -3 °C 1023.77 hPa N 35 km/h 30 km/h 57% 0 mm 135 W/m2
14:29 4 °C -3 °C 1023.71 hPa NNW 33 km/h 26 km/h 56% 0 mm 125 W/m2
14:34 4 °C -3 °C 1023.71 hPa N 39 km/h 36 km/h 57% 0 mm 132 W/m2
14:39 4 °C -3 °C 1023.6 hPa N 38 km/h 30 km/h 58% 0 mm 127 W/m2
14:44 4 °C -3 °C 1023.54 hPa N 38 km/h 35 km/h 58% 0 mm 105 W/m2
14:49 4 °C -3 °C 1023.37 hPa NNW 44 km/h 40 km/h 57% 0 mm 97 W/m2
14:54 4 °C -3 °C 1023.16 hPa NNW 47 km/h 44 km/h 56% 0 mm 91 W/m2
14:59 4 °C -3 °C 1023.37 hPa NNW 54 km/h 42 km/h 57% 0 mm 86 W/m2
15:04 4 °C -3 °C 1023.54 hPa NNW 50 km/h 43 km/h 56% 0 mm 83 W/m2
15:09 4 °C -4 °C 1023.94 hPa NNW 49 km/h 43 km/h 55% 0 mm 77 W/m2
15:14 4 °C -3 °C 1024.28 hPa NNW 47 km/h 44 km/h 57% 0 mm 69 W/m2
15:19 4 °C -3 °C 1024.18 hPa NNW 42 km/h 36 km/h 57% 0 mm 35 W/m2
15:24 4 °C -3 °C 1024.18 hPa NNW 37 km/h 33 km/h 58% 0 mm 35 W/m2
15:29 4 °C -3 °C 1024.28 hPa NNW 37 km/h 34 km/h 57% 0 mm 44 W/m2
15:34 4 °C -3 °C 1024.31 hPa N 36 km/h 33 km/h 60% 0 mm 33 W/m2
15:39 4 °C -3 °C 1024.38 hPa N 40 km/h 37 km/h 59% 0 mm 21 W/m2
15:44 4 °C -3 °C 1024.62 hPa N 37 km/h 35 km/h 59% 0 mm 23 W/m2
15:49 4 °C -3 °C 1024.65 hPa N 38 km/h 35 km/h 60% 0 mm 23 W/m2
15:54 4 °C -3 °C 1024.69 hPa N 39 km/h 34 km/h 61% 0 mm 21 W/m2
15:59 4 °C -3 °C 1024.79 hPa N 37 km/h 34 km/h 60% 0 mm 19 W/m2
16:04 4 °C -3 °C 1024.89 hPa N 34 km/h 33 km/h 60% 0 mm 16 W/m2
16:09 4 °C -2 °C 1025.06 hPa N 34 km/h 32 km/h 61% 0 mm 12 W/m2
16:14 4 °C -3 °C 1025.16 hPa N 32 km/h 30 km/h 60% 0 mm 11 W/m2
16:19 4 °C -2 °C 1025.16 hPa N 29 km/h 26 km/h 61% 0 mm 7 W/m2
16:24 4 °C -3 °C 1025.2 hPa NNW 32 km/h 27 km/h 60% 0 mm 7 W/m2
16:29 4 °C -3 °C 1025.09 hPa NNW 30 km/h 25 km/h 60% 0 mm 5 W/m2
16:34 4 °C -3 °C 1025.06 hPa NNW 31 km/h 25 km/h 60% 0 mm 0 W/m2
16:39 4 °C -3 °C 1024.96 hPa NNW 25 km/h 21 km/h 60% 0 mm 0 W/m2
16:44 4 °C -3 °C 1024.96 hPa NNW 28 km/h 23 km/h 60% 0 mm 0 W/m2
16:49 4 °C -3 °C 1024.99 hPa NNW 30 km/h 26 km/h 60% 0 mm 0 W/m2
16:54 4 °C -3 °C 1025.3 hPa NNW 36 km/h 29 km/h 61% 0 mm 0 W/m2
16:59 4 °C -3 °C 1025.57 hPa NNW 38 km/h 30 km/h 61% 0 mm 0 W/m2
17:04 4 °C -3 °C 1025.74 hPa NNW 30 km/h 25 km/h 61% 0 mm 0 W/m2
17:09 4 °C -3 °C 1025.74 hPa NNW 29 km/h 23 km/h 62% 0 mm 0 W/m2
17:14 4 °C -3 °C 1025.8 hPa NNW 28 km/h 22 km/h 62% 0 mm 0 W/m2
17:19 4 °C -3 °C 1026.14 hPa NNW 28 km/h 23 km/h 62% 0 mm 0 W/m2
17:24 4 °C -3 °C 1026.18 hPa NNW 24 km/h 19 km/h 62% 0 mm 0 W/m2
17:29 4 °C -2 °C 1026.28 hPa NNW 25 km/h 19 km/h 63% 0 mm 0 W/m2
17:34 4 °C -2 °C 1026.41 hPa NNW 23 km/h 19 km/h 63% 0 mm 0 W/m2
17:39 4 °C -2 °C 1026.55 hPa NNW 27 km/h 20 km/h 63% 0 mm 0 W/m2
17:44 4 °C -2 °C 1026.72 hPa NNW 22 km/h 17 km/h 64% 0 mm 0 W/m2
17:49 4 °C -2 °C 1026.69 hPa NNW 27 km/h 20 km/h 64% 0 mm 0 W/m2
17:54 4 °C -2 °C 1026.75 hPa NNW 21 km/h 17 km/h 64% 0 mm 0 W/m2
17:59 4 °C -2 °C 1026.82 hPa NNW 17 km/h 15 km/h 65% 0 mm 0 W/m2
18:04 4 °C -2 °C 1026.82 hPa NNW 21 km/h 15 km/h 66% 0 mm 0 W/m2
18:09 4 °C -2 °C 1026.62 hPa NNW 21 km/h 17 km/h 66% 0 mm 0 W/m2
18:14 4 °C -2 °C 1026.85 hPa NNW 25 km/h 19 km/h 66% 0 mm 0 W/m2
18:19 4 °C -2 °C 1027.02 hPa NNW 25 km/h 19 km/h 66% 0 mm 0 W/m2
18:24 4 °C -2 °C 1027.09 hPa NNW 24 km/h 17 km/h 67% 0 mm 0 W/m2
18:29 4 °C -2 °C 1027.06 hPa NW 20 km/h 16 km/h 67% 0 mm 0 W/m2
18:34 3 °C -2 °C 1027.09 hPa NW 22 km/h 17 km/h 67% 0 mm 0 W/m2
18:39 3 °C -2 °C 1027.16 hPa NW 24 km/h 18 km/h 68% 0 mm 0 W/m2
18:44 3 °C -2 °C 1027.33 hPa NW 25 km/h 20 km/h 68% 0 mm 0 W/m2
18:49 3 °C -2 °C 1027.5 hPa NW 21 km/h 17 km/h 69% 0 mm 0 W/m2
18:54 3 °C -2 °C 1027.63 hPa NNW 19 km/h 16 km/h 69% 0 mm 0 W/m2
18:59 3 °C -2 °C 1027.77 hPa NNW 15 km/h 12 km/h 69% 0 mm 0 W/m2
19:04 3 °C -2 °C 1027.8 hPa NNW 16 km/h 12 km/h 69% 0 mm 0 W/m2
19:09 3 °C -2 °C 1027.8 hPa NNW 20 km/h 17 km/h 70% 0 mm 0 W/m2
19:14 3 °C -2 °C 1027.77 hPa NNW 18 km/h 14 km/h 70% 0 mm 0 W/m2
19:19 3 °C -1 °C 1027.77 hPa NNW 18 km/h 15 km/h 70% 0 mm 0 W/m2
19:24 3 °C -1 °C 1027.7 hPa NW 19 km/h 14 km/h 71% 0 mm 0 W/m2
19:29 3 °C -1 °C 1027.57 hPa NW 18 km/h 18 km/h 71% 0 mm 0 W/m2
19:34 3 °C -1 °C 1027.7 hPa NNW 17 km/h 17 km/h 71% 0 mm 0 W/m2
19:39 3 °C -1 °C 1027.84 hPa NNW 17 km/h 11 km/h 71% 0 mm 0 W/m2
19:44 3 °C -1 °C 1027.94 hPa NW 18 km/h 12 km/h 72% 0 mm 0 W/m2
19:49 3 °C -1 °C 1028.07 hPa NW 13 km/h 11 km/h 72% 0 mm 0 W/m2
19:54 3 °C -1 °C 1028.24 hPa NNW 11 km/h 8 km/h 73% 0 mm 0 W/m2
19:59 3 °C -1 °C 1028.41 hPa NW 7 km/h 8 km/h 73% 0 mm 0 W/m2
20:04 3 °C -1 °C 1028.48 hPa NW 5 km/h 5 km/h 73% 0 mm 0 W/m2
20:09 3 °C -1 °C 1028.55 hPa NNW 4 km/h 3 km/h 73% 0 mm 0 W/m2
20:14 3 °C -1 °C 1028.55 hPa NW 4 km/h 7 km/h 73% 0 mm 0 W/m2
20:19 3 °C -1 °C 1028.51 hPa NNW 2 km/h 2 km/h 74% 0 mm 0 W/m2
20:24 3 °C -1 °C 1028.48 hPa NNW 2 km/h 3 km/h 74% 0 mm 0 W/m2
20:29 3 °C -1 °C 1028.45 hPa WNW 3 km/h 2 km/h 74% 0 mm 0 W/m2
20:34 3 °C -1 °C 1028.45 hPa NNW 6 km/h 4 km/h 74% 0 mm 0 W/m2
20:39 3 °C -1 °C 1028.45 hPa W 5 km/h 4 km/h 74% 0 mm 0 W/m2
20:44 3 °C -1 °C 1028.58 hPa WNW 7 km/h 6 km/h 74% 0 mm 0 W/m2
20:49 3 °C -1 °C 1028.58 hPa WNW 4 km/h 3 km/h 75% 0 mm 0 W/m2
20:54 3 °C -1 °C 1028.68 hPa NNW 6 km/h 4 km/h 75% 0 mm 0 W/m2
20:59 3 °C -1 °C 1028.72 hPa W 6 km/h 5 km/h 76% 0 mm 0 W/m2
21:04 3 °C -1 °C 1028.68 hPa NW 5 km/h 4 km/h 76% 0 mm 0 W/m2
21:09 3 °C -1 °C 1028.68 hPa WNW 5 km/h 5 km/h 76% 0 mm 0 W/m2
21:14 3 °C -1 °C 1028.58 hPa NNW 4 km/h 3 km/h 76% 0 mm 0 W/m2
21:19 3 °C -1 °C 1028.55 hPa WNW 3 km/h 2 km/h 76% 0 mm 0 W/m2
21:24 3 °C -1 °C 1028.62 hPa NW 9 km/h 5 km/h 77% 0 mm 0 W/m2
21:29 3 °C -1 °C 1028.65 hPa WNW 4 km/h 2 km/h 77% 0 mm 0 W/m2
21:34 3 °C -1 °C 1028.82 hPa WNW 5 km/h 2 km/h 77% 0 mm 0 W/m2
21:39 3 °C 0 °C 1028.85 hPa WNW 6 km/h 4 km/h 78% 0 mm 0 W/m2
21:44 3 °C 0 °C 1028.89 hPa WNW 8 km/h 6 km/h 78% 0 mm 0 W/m2
21:49 3 °C 0 °C 1028.92 hPa WNW 11 km/h 10 km/h 78% 0 mm 0 W/m2
21:54 3 °C 0 °C 1028.92 hPa NW 8 km/h 7 km/h 78% 0 mm 0 W/m2
21:59 3 °C 0 °C 1028.92 hPa NNW 9 km/h 9 km/h 78% 0 mm 0 W/m2
22:04 4 °C 0 °C 1028.85 hPa NNW 18 km/h 13 km/h 78% 0 mm 0 W/m2
22:09 4 °C 0 °C 1028.95 hPa NW 18 km/h 14 km/h 78% 0 mm 0 W/m2
22:14 4 °C 0 °C 1029.02 hPa NW 17 km/h 13 km/h 77% 0 mm 0 W/m2
22:19 4 °C 0 °C 1029.12 hPa NW 19 km/h 17 km/h 77% 0 mm 0 W/m2
22:24 4 °C 0 °C 1029.16 hPa NW 20 km/h 16 km/h 78% 0 mm 0 W/m2
22:29 4 °C 0 °C 1029.12 hPa NW 23 km/h 17 km/h 78% 0 mm 0 W/m2
22:34 4 °C 0 °C 1029.26 hPa NW 18 km/h 17 km/h 78% 0 mm 0 W/m2
22:39 4 °C 0 °C 1029.26 hPa NW 17 km/h 11 km/h 78% 0 mm 0 W/m2
22:44 4 °C 0 °C 1029.26 hPa NNW 14 km/h 11 km/h 78% 0 mm 0 W/m2
22:49 4 °C 0 °C 1029.26 hPa NNW 16 km/h 13 km/h 79% 0 mm 0 W/m2
22:54 4 °C 0 °C 1029.19 hPa NNW 16 km/h 14 km/h 79% 0 mm 0 W/m2
22:59 4 °C 1 °C 1029.19 hPa NNW 19 km/h 13 km/h 79% 0 mm 0 W/m2
23:04 4 °C 1 °C 1029.16 hPa NNW 18 km/h 14 km/h 79% 0 mm 0 W/m2
23:09 4 °C 1 °C 1029.16 hPa NNW 17 km/h 12 km/h 79% 0 mm 0 W/m2
23:14 4 °C 1 °C 1029.26 hPa NNW 15 km/h 12 km/h 79% 0 mm 0 W/m2
23:19 4 °C 1 °C 1029.29 hPa NNW 11 km/h 9 km/h 79% 0 mm 0 W/m2
23:24 4 °C 1 °C 1029.36 hPa NW 16 km/h 12 km/h 79% 0 mm 0 W/m2
23:29 4 °C 1 °C 1029.36 hPa NNW 20 km/h 18 km/h 79% 0 mm 0 W/m2
23:34 4 °C 1 °C 1029.33 hPa NNW 21 km/h 16 km/h 79% 0 mm 0 W/m2
23:39 4 °C 1 °C 1029.16 hPa NNW 22 km/h 16 km/h 79% 0 mm 0 W/m2
23:44 4 °C 1 °C 1029.09 hPa NW 19 km/h 13 km/h 79% 0 mm 0 W/m2
23:49 4 °C 1 °C 1028.95 hPa NW 18 km/h 12 km/h 79% 0 mm 0 W/m2
23:54 4 °C 1 °C 1028.99 hPa NW 16 km/h 11 km/h 79% 0 mm 0 W/m2
23:59 4 °C 1 °C 1028.99 hPa NW 19 km/h 15 km/h 80% 0 mm 0 W/m2
Compliments of Weather Underground - 2 mb